sensor_id;sensor_type;location;lat;lon;timestamp;pressure;altitude;pressure_sealevel;temperature;humidity
5651;BME280;40241;52.684;9.758;2023-05-21T00:02:07;101704.28;;;17.02;52.97
5651;BME280;40241;52.684;9.758;2023-05-21T00:04:38;101706.34;;;17.01;52.86
5651;BME280;40241;52.684;9.758;2023-05-21T00:07:05;101710.63;;;17.02;52.95
5651;BME280;40241;52.684;9.758;2023-05-21T00:09:30;101703.78;;;17.09;52.75
5651;BME280;40241;52.684;9.758;2023-05-21T00:11:56;101707.03;;;17.13;52.83
5651;BME280;40241;52.684;9.758;2023-05-21T00:14:21;101707.84;;;17.08;52.92
5651;BME280;40241;52.684;9.758;2023-05-21T00:16:46;101696.47;;;17.00;53.11
5651;BME280;40241;52.684;9.758;2023-05-21T00:19:12;101709.63;;;17.00;52.87
5651;BME280;40241;52.684;9.758;2023-05-21T00:21:37;101709.38;;;17.03;52.79
5651;BME280;40241;52.684;9.758;2023-05-21T00:24:04;101718.72;;;17.00;52.93
5651;BME280;40241;52.684;9.758;2023-05-21T00:26:29;101706.13;;;16.88;53.11
5651;BME280;40241;52.684;9.758;2023-05-21T00:28:55;101702.84;;;16.90;53.13
5651;BME280;40241;52.684;9.758;2023-05-21T00:31:21;101689.47;;;16.88;53.07
5651;BME280;40241;52.684;9.758;2023-05-21T00:33:46;101695.25;;;16.85;53.20
5651;BME280;40241;52.684;9.758;2023-05-21T00:36:11;101689.47;;;16.83;53.28
5651;BME280;40241;52.684;9.758;2023-05-21T00:38:41;101679.13;;;16.78;53.37
5651;BME280;40241;52.684;9.758;2023-05-21T00:41:10;101664.72;;;16.79;53.25
5651;BME280;40241;52.684;9.758;2023-05-21T00:43:36;101680.16;;;16.75;53.42
5651;BME280;40241;52.684;9.758;2023-05-21T00:46:06;101688.47;;;16.75;53.37
5651;BME280;40241;52.684;9.758;2023-05-21T00:48:31;101687.47;;;16.72;53.45
5651;BME280;40241;52.684;9.758;2023-05-21T00:50:57;101694.03;;;16.69;53.52
5651;BME280;40241;52.684;9.758;2023-05-21T00:53:22;101670.31;;;16.63;53.45
5651;BME280;40241;52.684;9.758;2023-05-21T00:55:49;101670.59;;;16.54;53.52
5651;BME280;40241;52.684;9.758;2023-05-21T00:58:14;101679.16;;;16.56;53.55
5651;BME280;40241;52.684;9.758;2023-05-21T01:00:42;101683.75;;;16.53;53.45
5651;BME280;40241;52.684;9.758;2023-05-21T01:03:07;101661.25;;;16.45;53.61
5651;BME280;40241;52.684;9.758;2023-05-21T01:05:33;101652.19;;;16.51;53.58
5651;BME280;40241;52.684;9.758;2023-05-21T01:07:59;101675.41;;;16.42;53.81
5651;BME280;40241;52.684;9.758;2023-05-21T01:10:25;101694.34;;;16.43;53.76
5651;BME280;40241;52.684;9.758;2023-05-21T01:12:51;101652.69;;;16.38;53.83
5651;BME280;40241;52.684;9.758;2023-05-21T01:15:19;101680.97;;;16.31;53.62
5651;BME280;40241;52.684;9.758;2023-05-21T01:17:45;101707.75;;;16.28;53.85
5651;BME280;40241;52.684;9.758;2023-05-21T01:20:11;101676.94;;;16.37;53.91
5651;BME280;40241;52.684;9.758;2023-05-21T01:22:55;101654.94;;;16.34;54.67
5651;BME280;40241;52.684;9.758;2023-05-21T01:25:24;101660.53;;;16.28;54.27
5651;BME280;40241;52.684;9.758;2023-05-21T01:27:50;101663.28;;;16.34;53.72
5651;BME280;40241;52.684;9.758;2023-05-21T01:30:17;101651.44;;;16.33;53.81
5651;BME280;40241;52.684;9.758;2023-05-21T01:35:31;101659.75;;;16.28;54.02
5651;BME280;40241;52.684;9.758;2023-05-21T01:43:12;101657.75;;;16.28;53.93
5651;BME280;40241;52.684;9.758;2023-05-21T01:45:39;101648.66;;;16.28;53.82
5651;BME280;40241;52.684;9.758;2023-05-21T01:48:06;101653.44;;;16.27;53.84
5651;BME280;40241;52.684;9.758;2023-05-21T01:50:33;101635.00;;;16.30;53.83
5651;BME280;40241;52.684;9.758;2023-05-21T01:52:59;101635.53;;;16.23;53.91
5651;BME280;40241;52.684;9.758;2023-05-21T01:55:30;101648.44;;;16.20;53.95
5651;BME280;40241;52.684;9.758;2023-05-21T01:57:56;101648.94;;;16.24;53.99
5651;BME280;40241;52.684;9.758;2023-05-21T02:00:23;101632.03;;;16.22;53.88
5651;BME280;40241;52.684;9.758;2023-05-21T02:02:49;101631.25;;;16.22;53.86
5651;BME280;40241;52.684;9.758;2023-05-21T02:05:16;101641.84;;;16.23;54.04
5651;BME280;40241;52.684;9.758;2023-05-21T02:07:41;101639.09;;;16.18;54.04
5651;BME280;40241;52.684;9.758;2023-05-21T02:10:08;101635.28;;;16.21;54.04
5651;BME280;40241;52.684;9.758;2023-05-21T02:12:34;101630.50;;;16.16;54.02
5651;BME280;40241;52.684;9.758;2023-05-21T02:14:59;101632.53;;;16.15;53.97
5651;BME280;40241;52.684;9.758;2023-05-21T02:17:25;101648.19;;;16.18;53.95
5651;BME280;40241;52.684;9.758;2023-05-21T02:19:50;101626.47;;;16.11;54.12
5651;BME280;40241;52.684;9.758;2023-05-21T02:22:16;101619.16;;;16.08;54.03
5651;BME280;40241;52.684;9.758;2023-05-21T02:24:41;101631.00;;;16.03;54.06
5651;BME280;40241;52.684;9.758;2023-05-21T02:27:07;101637.81;;;16.08;54.12
5651;BME280;40241;52.684;9.758;2023-05-21T02:29:35;101614.88;;;16.02;54.26
5651;BME280;40241;52.684;9.758;2023-05-21T02:32:00;101622.44;;;16.07;54.27
5651;BME280;40241;52.684;9.758;2023-05-21T02:34:26;101615.63;;;16.02;54.14
5651;BME280;40241;52.684;9.758;2023-05-21T02:36:55;101639.88;;;16.07;54.39
5651;BME280;40241;52.684;9.758;2023-05-21T02:39:20;101635.56;;;16.06;54.19
5651;BME280;40241;52.684;9.758;2023-05-21T02:41:46;101619.91;;;16.03;54.19
5651;BME280;40241;52.684;9.758;2023-05-21T02:44:12;101614.13;;;15.96;54.37
5651;BME280;40241;52.684;9.758;2023-05-21T02:46:37;101625.22;;;16.01;54.39
5651;BME280;40241;52.684;9.758;2023-05-21T02:49:02;101637.34;;;15.98;54.45
5651;BME280;40241;52.684;9.758;2023-05-21T02:51:28;101629.03;;;15.98;54.48
5651;BME280;40241;52.684;9.758;2023-05-21T02:53:53;101615.91;;;15.99;54.42
5651;BME280;40241;52.684;9.758;2023-05-21T02:56:18;101622.19;;;15.99;54.26
5651;BME280;40241;52.684;9.758;2023-05-21T02:58:44;101625.22;;;16.01;54.35
5651;BME280;40241;52.684;9.758;2023-05-21T03:01:09;101626.75;;;16.02;54.32
5651;BME280;40241;52.684;9.758;2023-05-21T03:03:35;101617.13;;;16.03;54.41
5651;BME280;40241;52.684;9.758;2023-05-21T03:06:00;101606.28;;;16.00;54.34
5651;BME280;40241;52.684;9.758;2023-05-21T03:08:25;101628.50;;;15.89;54.44
5651;BME280;40241;52.684;9.758;2023-05-21T03:10:51;101627.75;;;15.99;54.26
5651;BME280;40241;52.684;9.758;2023-05-21T03:13:16;101663.06;;;15.93;54.34
5651;BME280;40241;52.684;9.758;2023-05-21T03:15:41;101604.53;;;15.91;54.37
5651;BME280;40241;52.684;9.758;2023-05-21T03:18:08;101623.22;;;15.96;54.55
5651;BME280;40241;52.684;9.758;2023-05-21T03:20:34;101671.13;;;15.97;54.38
5651;BME280;40241;52.684;9.758;2023-05-21T03:22:59;101620.69;;;15.87;54.32
5651;BME280;40241;52.684;9.758;2023-05-21T03:25:28;101638.09;;;15.93;54.40
5651;BME280;40241;52.684;9.758;2023-05-21T03:27:53;101668.63;;;15.93;54.39
5651;BME280;40241;52.684;9.758;2023-05-21T03:30:19;101616.38;;;15.97;54.37
5651;BME280;40241;52.684;9.758;2023-05-21T03:32:45;101577.53;;;15.86;54.41
5651;BME280;40241;52.684;9.758;2023-05-21T03:35:11;101645.69;;;15.87;54.83
5651;BME280;40241;52.684;9.758;2023-05-21T03:37:36;101612.63;;;15.89;54.50
5651;BME280;40241;52.684;9.758;2023-05-21T03:40:01;101582.84;;;15.84;54.46
5651;BME280;40241;52.684;9.758;2023-05-21T03:42:27;101626.00;;;15.85;54.51
5651;BME280;40241;52.684;9.758;2023-05-21T03:44:52;101643.91;;;15.84;54.48
5651;BME280;40241;52.684;9.758;2023-05-21T03:47:18;101618.94;;;15.84;54.51
5651;BME280;40241;52.684;9.758;2023-05-21T03:49:43;101661.56;;;15.81;54.55
5651;BME280;40241;52.684;9.758;2023-05-21T03:52:08;101648.19;;;15.80;54.60
5651;BME280;40241;52.684;9.758;2023-05-21T03:54:34;101612.88;;;15.86;54.63
5651;BME280;40241;52.684;9.758;2023-05-21T03:56:59;101612.63;;;15.89;54.56
5651;BME280;40241;52.684;9.758;2023-05-21T03:59:25;101610.09;;;15.91;54.37
5651;BME280;40241;52.684;9.758;2023-05-21T04:01:50;101593.19;;;15.89;54.25
5651;BME280;40241;52.684;9.758;2023-05-21T04:04:15;101605.06;;;15.90;54.51
5651;BME280;40241;52.684;9.758;2023-05-21T04:06:41;101597.22;;;15.88;54.63
5651;BME280;40241;52.684;9.758;2023-05-21T04:09:08;101595.22;;;15.89;54.80
5651;BME280;40241;52.684;9.758;2023-05-21T04:11:33;101584.84;;;15.84;54.66
5651;BME280;40241;52.684;9.758;2023-05-21T04:13:59;101600.75;;;15.89;54.70
5651;BME280;40241;52.684;9.758;2023-05-21T04:16:25;101615.66;;;15.86;54.88
5651;BME280;40241;52.684;9.758;2023-05-21T04:18:50;101594.47;;;15.83;54.88
5651;BME280;40241;52.684;9.758;2023-05-21T04:21:16;101600.50;;;15.87;54.99
5651;BME280;40241;52.684;9.758;2023-05-21T04:23:41;101621.97;;;15.81;54.99
5651;BME280;40241;52.684;9.758;2023-05-21T04:26:07;101601.78;;;15.91;54.99
5651;BME280;40241;52.684;9.758;2023-05-21T04:28:32;101596.47;;;15.93;55.06
5651;BME280;40241;52.684;9.758;2023-05-21T04:30:59;101619.16;;;15.97;54.95
5651;BME280;40241;52.684;9.758;2023-05-21T04:33:25;101621.69;;;15.95;54.99
5651;BME280;40241;52.684;9.758;2023-05-21T04:35:51;101627.00;;;15.99;54.94
5651;BME280;40241;52.684;9.758;2023-05-21T04:38:17;101651.97;;;16.04;54.89
5651;BME280;40241;52.684;9.758;2023-05-21T04:40:47;101640.59;;;16.08;54.95
5651;BME280;40241;52.684;9.758;2023-05-21T04:43:14;101614.38;;;16.09;55.05
5651;BME280;40241;52.684;9.758;2023-05-21T04:45:41;101622.97;;;16.05;55.00
5651;BME280;40241;52.684;9.758;2023-05-21T04:48:07;101606.28;;;16.11;55.22
5651;BME280;40241;52.684;9.758;2023-05-21T04:50:32;101631.78;;;16.20;54.92
5651;BME280;40241;52.684;9.758;2023-05-21T04:52:58;101614.34;;;16.20;54.98
5651;BME280;40241;52.684;9.758;2023-05-21T04:55:23;101628.22;;;16.14;55.18
5651;BME280;40241;52.684;9.758;2023-05-21T04:57:48;101625.97;;;16.18;55.05
5651;BME280;40241;52.684;9.758;2023-05-21T05:00:15;101611.06;;;16.21;55.14
5651;BME280;40241;52.684;9.758;2023-05-21T05:02:41;101611.81;;;16.22;55.01
5651;BME280;40241;52.684;9.758;2023-05-21T05:05:07;101604.75;;;16.26;55.17
5651;BME280;40241;52.684;9.758;2023-05-21T05:07:32;101600.44;;;16.31;55.06
5651;BME280;40241;52.684;9.758;2023-05-21T05:09:57;101609.25;;;16.35;55.10
5651;BME280;40241;52.684;9.758;2023-05-21T05:12:23;101594.09;;;16.36;55.14
5651;BME280;40241;52.684;9.758;2023-05-21T05:14:48;101652.41;;;16.41;55.14
5651;BME280;40241;52.684;9.758;2023-05-21T05:17:13;101611.28;;;16.40;55.18
5651;BME280;40241;52.684;9.758;2023-05-21T05:19:39;101639.03;;;16.45;55.05
5651;BME280;40241;52.684;9.758;2023-05-21T05:22:05;101633.50;;;16.51;55.07
5651;BME280;40241;52.684;9.758;2023-05-21T05:24:30;101645.34;;;16.57;55.05
5651;BME280;40241;52.684;9.758;2023-05-21T05:26:56;101621.84;;;16.58;55.13
5651;BME280;40241;52.684;9.758;2023-05-21T05:29:21;101598.31;;;16.65;55.17
5651;BME280;40241;52.684;9.758;2023-05-21T05:31:46;101605.13;;;16.69;55.09
5651;BME280;40241;52.684;9.758;2023-05-21T05:34:12;101616.69;;;16.84;55.10
5651;BME280;40241;52.684;9.758;2023-05-21T05:36:37;101637.63;;;16.91;55.14
5651;BME280;40241;52.684;9.758;2023-05-21T05:39:03;101600.94;;;17.03;55.04
5651;BME280;40241;52.684;9.758;2023-05-21T05:41:28;101593.31;;;17.09;54.99
5651;BME280;40241;52.684;9.758;2023-05-21T05:43:53;101620.34;;;17.14;55.02
5651;BME280;40241;52.684;9.758;2023-05-21T05:46:19;101598.03;;;17.20;54.98
5651;BME280;40241;52.684;9.758;2023-05-21T05:48:44;101599.56;;;17.21;55.05
5651;BME280;40241;52.684;9.758;2023-05-21T05:51:09;101590.75;;;17.11;54.88
5651;BME280;40241;52.684;9.758;2023-05-21T05:53:36;101598.25;;;17.28;54.92
5651;BME280;40241;52.684;9.758;2023-05-21T05:56:02;101611.34;;;17.33;54.97
5651;BME280;40241;52.684;9.758;2023-05-21T05:58:28;101608.78;;;17.40;54.87
5651;BME280;40241;52.684;9.758;2023-05-21T06:00:54;101604.25;;;17.37;54.88
5651;BME280;40241;52.684;9.758;2023-05-21T06:03:19;101590.00;;;17.46;54.84
5651;BME280;40241;52.684;9.758;2023-05-21T06:05:45;101589.50;;;17.53;54.88
5651;BME280;40241;52.684;9.758;2023-05-21T06:08:10;101622.28;;;17.66;54.71
5651;BME280;40241;52.684;9.758;2023-05-21T06:10:35;101606.34;;;17.66;54.75
5651;BME280;40241;52.684;9.758;2023-05-21T06:13:01;101638.22;;;17.65;54.91
5651;BME280;40241;52.684;9.758;2023-05-21T06:15:26;101607.72;;;17.78;54.84
5651;BME280;40241;52.684;9.758;2023-05-21T06:17:52;101596.34;;;17.82;54.70
5651;BME280;40241;52.684;9.758;2023-05-21T06:20:17;101612.75;;;17.85;54.60
5651;BME280;40241;52.684;9.758;2023-05-21T06:22:42;101605.91;;;17.86;54.81
5651;BME280;40241;52.684;9.758;2023-05-21T06:25:08;101612.94;;;17.93;54.72
5651;BME280;40241;52.684;9.758;2023-05-21T06:27:35;101618.22;;;17.96;54.93
5651;BME280;40241;52.684;9.758;2023-05-21T06:30:01;101596.34;;;18.06;54.74
5651;BME280;40241;52.684;9.758;2023-05-21T06:32:26;101591.75;;;18.09;54.79
5651;BME280;40241;52.684;9.758;2023-05-21T06:34:52;101614.78;;;18.09;54.81
5651;BME280;40241;52.684;9.758;2023-05-21T06:37:18;101611.25;;;18.09;54.77
5651;BME280;40241;52.684;9.758;2023-05-21T06:39:45;101626.34;;;18.19;54.73
5651;BME280;40241;52.684;9.758;2023-05-21T06:42:10;101618.69;;;18.25;54.66
5651;BME280;40241;52.684;9.758;2023-05-21T06:44:35;101590.13;;;18.19;54.84
5651;BME280;40241;52.684;9.758;2023-05-21T06:47:01;101623.72;;;18.26;54.65
5651;BME280;40241;52.684;9.758;2023-05-21T06:49:26;101607.00;;;18.26;54.67
5651;BME280;40241;52.684;9.758;2023-05-21T06:51:51;101594.19;;;18.42;54.58
5651;BME280;40241;52.684;9.758;2023-05-21T06:54:17;101591.88;;;18.46;54.82
5651;BME280;40241;52.684;9.758;2023-05-21T06:56:42;101584.31;;;18.65;54.61
5651;BME280;40241;52.684;9.758;2023-05-21T06:59:07;101621.47;;;18.73;54.50
5651;BME280;40241;52.684;9.758;2023-05-21T07:01:33;101633.69;;;18.89;54.43
5651;BME280;40241;52.684;9.758;2023-05-21T07:03:58;101575.56;;;18.93;54.38
5651;BME280;40241;52.684;9.758;2023-05-21T07:06:24;101598.63;;;19.12;54.11
5651;BME280;40241;52.684;9.758;2023-05-21T07:08:49;101573.66;;;19.19;54.12
5651;BME280;40241;52.684;9.758;2023-05-21T07:11:14;101575.91;;;19.21;54.04
5651;BME280;40241;52.684;9.758;2023-05-21T07:13:40;101572.66;;;19.35;53.90
5651;BME280;40241;52.684;9.758;2023-05-21T07:16:06;101569.03;;;19.40;54.07
5651;BME280;40241;52.684;9.758;2023-05-21T07:18:31;101566.06;;;19.52;54.02
5651;BME280;40241;52.684;9.758;2023-05-21T07:20:57;101578.88;;;19.60;54.02
5651;BME280;40241;52.684;9.758;2023-05-21T07:23:22;101571.91;;;19.67;53.91
5651;BME280;40241;52.684;9.758;2023-05-21T07:25:48;101573.84;;;19.72;53.77
5651;BME280;40241;52.684;9.758;2023-05-21T07:28:13;101610.50;;;19.81;53.89
5651;BME280;40241;52.684;9.758;2023-05-21T07:30:38;101562.38;;;19.88;53.70
5651;BME280;40241;52.684;9.758;2023-05-21T07:33:04;101559.94;;;19.98;53.68
5651;BME280;40241;52.684;9.758;2023-05-21T07:35:29;101615.81;;;20.11;53.53
5651;BME280;40241;52.684;9.758;2023-05-21T07:37:55;101610.78;;;20.23;53.42
5651;BME280;40241;52.684;9.758;2023-05-21T07:40:20;101615.66;;;20.22;53.46
5651;BME280;40241;52.684;9.758;2023-05-21T07:42:46;101552.00;;;20.28;53.49
5651;BME280;40241;52.684;9.758;2023-05-21T07:45:11;101568.88;;;20.36;53.26
5651;BME280;40241;52.684;9.758;2023-05-21T07:47:36;101610.06;;;20.35;53.25
5651;BME280;40241;52.684;9.758;2023-05-21T07:50:02;101590.81;;;20.32;53.39
5651;BME280;40241;52.684;9.758;2023-05-21T07:52:27;101599.84;;;20.38;53.44
5651;BME280;40241;52.684;9.758;2023-05-21T07:54:53;101570.56;;;20.52;53.34
5651;BME280;40241;52.684;9.758;2023-05-21T07:57:18;101610.47;;;20.52;53.28
5651;BME280;40241;52.684;9.758;2023-05-21T07:59:43;101564.00;;;20.62;53.37
5651;BME280;40241;52.684;9.758;2023-05-21T08:02:09;101573.25;;;20.70;53.22
5651;BME280;40241;52.684;9.758;2023-05-21T08:04:34;101561.38;;;20.77;53.07
5651;BME280;40241;52.684;9.758;2023-05-21T08:07:00;101585.25;;;20.91;53.14
5651;BME280;40241;52.684;9.758;2023-05-21T08:09:25;101579.72;;;20.99;52.97
5651;BME280;40241;52.684;9.758;2023-05-21T08:11:51;101610.41;;;21.05;52.76
5651;BME280;40241;52.684;9.758;2023-05-21T08:14:16;101565.72;;;21.12;52.93
5651;BME280;40241;52.684;9.758;2023-05-21T08:16:42;101569.25;;;21.13;52.67
5651;BME280;40241;52.684;9.758;2023-05-21T08:19:07;101569.66;;;21.17;52.60
5651;BME280;40241;52.684;9.758;2023-05-21T08:21:32;101572.34;;;21.22;52.63
5651;BME280;40241;52.684;9.758;2023-05-21T08:23:58;101590.63;;;21.23;52.54
5651;BME280;40241;52.684;9.758;2023-05-21T08:26:24;101616.13;;;21.33;52.57
5651;BME280;40241;52.684;9.758;2023-05-21T08:28:50;101569.34;;;21.41;52.48
5651;BME280;40241;52.684;9.758;2023-05-21T08:31:17;101600.03;;;21.46;52.26
5651;BME280;40241;52.684;9.758;2023-05-21T08:33:49;101586.22;;;21.48;52.40
5651;BME280;40241;52.684;9.758;2023-05-21T08:36:15;101600.09;;;21.54;52.32
5651;BME280;40241;52.684;9.758;2023-05-21T08:38:40;101598.31;;;21.64;52.21
5651;BME280;40241;52.684;9.758;2023-05-21T08:41:06;101584.13;;;21.62;52.21
5651;BME280;40241;52.684;9.758;2023-05-21T08:43:33;101567.75;;;21.74;51.97
5651;BME280;40241;52.684;9.758;2023-05-21T08:45:59;101596.94;;;21.78;52.08
5651;BME280;40241;52.684;9.758;2023-05-21T08:48:24;101572.13;;;21.82;51.87
5651;BME280;40241;52.684;9.758;2023-05-21T08:50:51;101566.88;;;21.99;51.90
5651;BME280;40241;52.684;9.758;2023-05-21T08:53:17;101577.72;;;22.03;51.70
5651;BME280;40241;52.684;9.758;2023-05-21T08:55:42;101569.91;;;22.09;51.70
5651;BME280;40241;52.684;9.758;2023-05-21T08:58:09;101567.75;;;22.22;51.58
5651;BME280;40241;52.684;9.758;2023-05-21T09:00:34;101557.38;;;22.38;51.58
5651;BME280;40241;52.684;9.758;2023-05-21T09:03:00;101577.22;;;22.48;51.26
5651;BME280;40241;52.684;9.758;2023-05-21T09:05:27;101562.00;;;22.64;51.26
5651;BME280;40241;52.684;9.758;2023-05-21T09:07:58;101562.03;;;22.71;50.67
5651;BME280;40241;52.684;9.758;2023-05-21T09:10:34;101561.31;;;22.78;50.93
5651;BME280;40241;52.684;9.758;2023-05-21T09:12:59;101563.97;;;22.91;50.60
5651;BME280;40241;52.684;9.758;2023-05-21T09:15:25;101573.13;;;22.92;50.62
5651;BME280;40241;52.684;9.758;2023-05-21T09:17:51;101559.47;;;22.88;50.51
5651;BME280;40241;52.684;9.758;2023-05-21T09:20:16;101578.94;;;22.94;50.53
5651;BME280;40241;52.684;9.758;2023-05-21T09:25:10;101555.00;;;22.93;50.51
5651;BME280;40241;52.684;9.758;2023-05-21T09:27:36;101582.31;;;23.00;50.38
5651;BME280;40241;52.684;9.758;2023-05-21T09:30:03;101565.72;;;23.17;50.38
5651;BME280;40241;52.684;9.758;2023-05-21T09:32:29;101569.09;;;23.31;50.16
5651;BME280;40241;52.684;9.758;2023-05-21T09:34:54;101562.59;;;23.36;50.01
5651;BME280;40241;52.684;9.758;2023-05-21T09:37:20;101569.13;;;23.38;49.80
5651;BME280;40241;52.684;9.758;2023-05-21T09:39:47;101559.19;;;23.37;49.74
5651;BME280;40241;52.684;9.758;2023-05-21T09:42:12;101588.81;;;23.38;49.79
5651;BME280;40241;52.684;9.758;2023-05-21T09:44:37;101584.31;;;23.50;49.96
5651;BME280;40241;52.684;9.758;2023-05-21T09:47:03;101569.34;;;23.63;49.83
5651;BME280;40241;52.684;9.758;2023-05-21T09:49:29;101583.56;;;23.72;49.67
5651;BME280;40241;52.684;9.758;2023-05-21T09:51:58;101554.91;;;23.89;49.45
5651;BME280;40241;52.684;9.758;2023-05-21T09:54:29;101556.75;;;24.02;49.14
5651;BME280;40241;52.684;9.758;2023-05-21T09:56:55;101562.56;;;24.11;49.29
5651;BME280;40241;52.684;9.758;2023-05-21T09:59:20;101557.28;;;24.23;49.14
5651;BME280;40241;52.684;9.758;2023-05-21T10:01:49;101539.28;;;24.18;48.76
5651;BME280;40241;52.684;9.758;2023-05-21T10:04:16;101539.63;;;24.30;48.83
5651;BME280;40241;52.684;9.758;2023-05-21T10:06:42;101544.84;;;24.48;48.73
5651;BME280;40241;52.684;9.758;2023-05-21T10:09:13;101535.91;;;24.67;48.33
5651;BME280;40241;52.684;9.758;2023-05-21T10:11:43;101550.72;;;24.75;48.28
5651;BME280;40241;52.684;9.758;2023-05-21T10:14:14;101547.28;;;24.92;48.10
5651;BME280;40241;52.684;9.758;2023-05-21T10:16:41;101566.84;;;25.14;48.08
5651;BME280;40241;52.684;9.758;2023-05-21T10:19:07;101524.84;;;25.34;47.87
5651;BME280;40241;52.684;9.758;2023-05-21T10:21:35;101533.88;;;25.57;47.52
5651;BME280;40241;52.684;9.758;2023-05-21T10:24:01;101534.19;;;25.61;47.11
5651;BME280;40241;52.684;9.758;2023-05-21T10:26:28;101534.03;;;25.59;47.15
5651;BME280;40241;52.684;9.758;2023-05-21T10:28:55;101533.56;;;25.70;46.85
5651;BME280;40241;52.684;9.758;2023-05-21T10:31:22;101531.00;;;25.81;46.77
5651;BME280;40241;52.684;9.758;2023-05-21T10:33:47;101526.19;;;25.74;46.53
5651;BME280;40241;52.684;9.758;2023-05-21T10:36:15;101533.72;;;25.72;46.75
5651;BME280;40241;52.684;9.758;2023-05-21T10:38:42;101536.13;;;25.75;46.81
5651;BME280;40241;52.684;9.758;2023-05-21T10:41:08;101544.84;;;25.87;46.87
5651;BME280;40241;52.684;9.758;2023-05-21T10:43:55;101527.28;;;25.96;46.33
5651;BME280;40241;52.684;9.758;2023-05-21T10:52:07;101517.53;;;26.14;46.09
5651;BME280;40241;52.684;9.758;2023-05-21T10:55:12;101504.06;;;26.22;45.58
5651;BME280;40241;52.684;9.758;2023-05-21T11:00:33;101504.72;;;26.30;46.17
5651;BME280;40241;52.684;9.758;2023-05-21T11:02:59;101503.13;;;26.37;45.93
5651;BME280;40241;52.684;9.758;2023-05-21T11:05:54;101491.97;;;26.56;45.56
5651;BME280;40241;52.684;9.758;2023-05-21T11:08:28;101495.91;;;26.70;44.85
5651;BME280;40241;52.684;9.758;2023-05-21T11:11:00;101502.22;;;26.78;45.27
5651;BME280;40241;52.684;9.758;2023-05-21T11:13:26;101510.69;;;26.78;45.04
5651;BME280;40241;52.684;9.758;2023-05-21T11:21:07;101482.72;;;27.45;44.05
5651;BME280;40241;52.684;9.758;2023-05-21T11:26:19;101480.09;;;27.66;43.53
5651;BME280;40241;52.684;9.758;2023-05-21T11:31:29;101471.47;;;28.02;43.39
5651;BME280;40241;52.684;9.758;2023-05-21T11:36:40;101474.16;;;28.19;42.81
5651;BME280;40241;52.684;9.758;2023-05-21T11:39:08;101471.63;;;28.14;42.69
5651;BME280;40241;52.684;9.758;2023-05-21T11:44:15;101460.00;;;28.29;42.72
5651;BME280;40241;52.684;9.758;2023-05-21T11:46:41;101475.91;;;28.44;42.35
5651;BME280;40241;52.684;9.758;2023-05-21T11:49:08;101454.72;;;28.54;42.24
5651;BME280;40241;52.684;9.758;2023-05-21T11:51:34;101467.53;;;28.65;42.05
5651;BME280;40241;52.684;9.758;2023-05-21T11:54:00;101462.72;;;28.77;41.49
5651;BME280;40241;52.684;9.758;2023-05-21T11:56:27;101460.59;;;28.87;41.44
5651;BME280;40241;52.684;9.758;2023-05-21T11:58:55;101464.13;;;28.97;40.92
5651;BME280;40241;52.684;9.758;2023-05-21T12:01:22;101457.06;;;29.08;40.84
5651;BME280;40241;52.684;9.758;2023-05-21T12:03:47;101451.53;;;29.10;41.16
5651;BME280;40241;52.684;9.758;2023-05-21T12:06:12;101462.94;;;29.31;40.83
5651;BME280;40241;52.684;9.758;2023-05-21T12:08:38;101456.25;;;29.47;40.62
5651;BME280;40241;52.684;9.758;2023-05-21T12:11:03;101456.94;;;29.57;40.40
5651;BME280;40241;52.684;9.758;2023-05-21T12:13:29;101449.97;;;29.70;40.06
5651;BME280;40241;52.684;9.758;2023-05-21T12:15:54;101448.44;;;29.79;39.83
5651;BME280;40241;52.684;9.758;2023-05-21T12:18:20;101450.47;;;29.88;39.74
5651;BME280;40241;52.684;9.758;2023-05-21T12:20:50;101444.09;;;29.99;38.54
5651;BME280;40241;52.684;9.758;2023-05-21T12:23:25;101444.13;;;30.10;37.87
5651;BME280;40241;52.684;9.758;2023-05-21T12:25:51;101448.22;;;30.19;38.86
5651;BME280;40241;52.684;9.758;2023-05-21T12:28:19;101442.44;;;30.28;38.57
5651;BME280;40241;52.684;9.758;2023-05-21T12:30:45;101436.59;;;30.36;38.51
5651;BME280;40241;52.684;9.758;2023-05-21T12:33:10;101457.09;;;30.46;38.59
5651;BME280;40241;52.684;9.758;2023-05-21T12:35:36;101446.56;;;30.37;38.30
5651;BME280;40241;52.684;9.758;2023-05-21T12:38:01;101457.47;;;30.19;38.14
5651;BME280;40241;52.684;9.758;2023-05-21T12:40:37;101441.06;;;30.18;38.03
5651;BME280;40241;52.684;9.758;2023-05-21T12:43:03;101462.19;;;30.26;38.46
5651;BME280;40241;52.684;9.758;2023-05-21T12:45:30;101448.78;;;30.38;38.26
5651;BME280;40241;52.684;9.758;2023-05-21T12:47:56;101445.72;;;30.46;38.11
5651;BME280;40241;52.684;9.758;2023-05-21T12:50:21;101445.22;;;30.50;38.32
5651;BME280;40241;52.684;9.758;2023-05-21T12:52:47;101438.16;;;30.39;37.72
5651;BME280;40241;52.684;9.758;2023-05-21T12:55:13;101471.16;;;30.44;37.81
5651;BME280;40241;52.684;9.758;2023-05-21T12:57:39;101441.41;;;30.57;37.93
5651;BME280;40241;52.684;9.758;2023-05-21T13:00:05;101426.09;;;30.50;37.46
5651;BME280;40241;52.684;9.758;2023-05-21T13:02:38;101433.63;;;30.46;36.08
5651;BME280;40241;52.684;9.758;2023-05-21T13:05:09;101474.72;;;30.33;37.39
5651;BME280;40241;52.684;9.758;2023-05-21T13:07:36;101449.63;;;30.29;37.38
5651;BME280;40241;52.684;9.758;2023-05-21T13:10:03;101439.53;;;30.38;37.39
5651;BME280;40241;52.684;9.758;2023-05-21T13:12:30;101429.41;;;30.35;37.23
5651;BME280;40241;52.684;9.758;2023-05-21T13:14:58;101434.44;;;30.25;37.52
5651;BME280;40241;52.684;9.758;2023-05-21T13:17:24;101424.66;;;30.28;37.76
5651;BME280;40241;52.684;9.758;2023-05-21T13:20:06;101420.94;;;30.25;37.17
5651;BME280;40241;52.684;9.758;2023-05-21T13:22:40;101436.72;;;30.38;37.69
5651;BME280;40241;52.684;9.758;2023-05-21T13:25:14;101431.16;;;30.52;37.65
5651;BME280;40241;52.684;9.758;2023-05-21T13:27:44;101420.78;;;30.45;37.46
5651;BME280;40241;52.684;9.758;2023-05-21T13:30:10;101430.16;;;30.47;37.74
5651;BME280;40241;52.684;9.758;2023-05-21T13:32:36;101428.31;;;30.40;37.42